createdAt,value
2022-08-16T00:00:04.498Z,23.01
2022-08-16T00:02:31.612Z,23.25
2022-08-16T00:04:59.663Z,23.30
2022-08-16T00:07:26.443Z,23.27
2022-08-16T00:09:55.663Z,23.11
2022-08-16T00:12:21.950Z,23.11
2022-08-16T00:14:50.025Z,23.11
2022-08-16T00:17:18.374Z,23.05
2022-08-16T00:19:45.352Z,23.04
2022-08-16T00:22:13.370Z,23.04
2022-08-16T00:24:40.158Z,23.06
2022-08-16T00:27:11.156Z,22.93
2022-08-16T00:29:37.469Z,22.94
2022-08-16T00:32:05.922Z,23.02
2022-08-16T00:34:43.744Z,22.99
2022-08-16T00:37:20.512Z,23.03
2022-08-16T00:39:47.603Z,22.99
2022-08-16T00:42:14.240Z,22.92
2022-08-16T00:44:56.206Z,22.79
2022-08-16T00:47:22.539Z,22.62
2022-08-16T00:49:56.594Z,22.66
2022-08-16T00:52:29.654Z,22.67
2022-08-16T00:54:56.996Z,22.58
2022-08-16T00:57:23.979Z,22.65
2022-08-16T00:59:54.855Z,22.62
2022-08-16T01:02:31.339Z,22.83
2022-08-16T01:05:11.221Z,22.95
2022-08-16T01:07:50.535Z,22.74
2022-08-16T01:10:18.594Z,22.77
2022-08-16T01:12:44.896Z,22.46
2022-08-16T01:15:11.255Z,22.61
2022-08-16T01:17:38.975Z,22.34
2022-08-16T01:20:24.134Z,22.34
2022-08-16T01:22:52.310Z,22.25
2022-08-16T01:25:18.917Z,22.26
2022-08-16T01:27:48.018Z,21.90
2022-08-16T01:30:18.083Z,21.71
2022-08-16T01:32:47.243Z,21.81
2022-08-16T01:35:28.559Z,22.22
2022-08-16T01:38:01.475Z,22.30
2022-08-16T01:40:28.064Z,22.21
2022-08-16T01:42:54.381Z,22.09
2022-08-16T01:45:21.890Z,22.15
2022-08-16T01:47:49.281Z,22.01
2022-08-16T01:50:43.086Z,21.76
2022-08-16T01:53:03.704Z,21.72
2022-08-16T01:55:35.860Z,21.95
2022-08-16T01:58:06.916Z,21.78
2022-08-16T02:00:37.196Z,21.87
2022-08-16T02:03:04.152Z,21.92
2022-08-16T02:05:31.030Z,21.79
2022-08-16T02:07:58.318Z,21.87
2022-08-16T02:10:24.603Z,21.79
2022-08-16T02:12:55.908Z,21.77
2022-08-16T02:15:27.031Z,21.78
2022-08-16T02:17:53.336Z,21.33
2022-08-16T02:20:19.732Z,21.37
2022-08-16T02:22:52.808Z,21.31
2022-08-16T02:25:21.674Z,21.42
2022-08-16T02:27:51.048Z,21.55
2022-08-16T02:30:37.130Z,21.40
2022-08-16T02:33:04.346Z,21.45
2022-08-16T02:35:31.722Z,21.50
2022-08-16T02:38:08.659Z,21.50
2022-08-16T02:40:35.468Z,21.41
2022-08-16T02:43:02.825Z,21.39
2022-08-16T02:45:29.189Z,21.44
2022-08-16T02:48:01.501Z,21.46
2022-08-16T02:50:53.509Z,21.50
2022-08-16T02:53:28.855Z,21.53
2022-08-16T02:55:56.175Z,21.61
2022-08-16T02:58:25.686Z,21.63
2022-08-16T03:00:52.033Z,21.60
2022-08-16T03:03:18.724Z,21.13
2022-08-16T03:05:49.853Z,21.18
2022-08-16T03:08:49.748Z,21.19
2022-08-16T03:11:05.518Z,21.21
2022-08-16T03:13:43.309Z,21.01
2022-08-16T03:16:32.701Z,21.09
2022-08-16T03:19:00.150Z,21.19
2022-08-16T03:21:28.815Z,21.23
2022-08-16T03:24:04.661Z,21.19
2022-08-16T03:26:31.967Z,21.14
2022-08-16T03:28:58.347Z,21.09
2022-08-16T03:31:25.712Z,21.09
2022-08-16T03:34:01.220Z,21.11
2022-08-16T03:36:32.614Z,20.98
2022-08-16T03:38:59.249Z,21.04
2022-08-16T03:41:29.377Z,20.92
2022-08-16T03:44:01.784Z,20.76
2022-08-16T03:46:47.729Z,20.87
2022-08-16T03:49:17.220Z,20.97
2022-08-16T03:51:43.529Z,20.92
2022-08-16T03:54:12.267Z,20.95
2022-08-16T03:56:39.070Z,20.97
2022-08-16T03:59:23.703Z,21.00
2022-08-16T04:01:50.036Z,20.81
2022-08-16T04:04:32.794Z,20.85
2022-08-16T04:07:00.464Z,20.91
2022-08-16T04:09:29.231Z,20.99
2022-08-16T04:11:56.206Z,20.96
2022-08-16T04:14:30.933Z,20.97
2022-08-16T04:17:00.897Z,21.10
2022-08-16T04:19:31.572Z,21.05
2022-08-16T04:21:58.208Z,20.88
2022-08-16T04:24:28.835Z,20.82
2022-08-16T04:26:55.184Z,20.76
2022-08-16T04:29:23.623Z,20.81
2022-08-16T04:31:56.473Z,20.90
2022-08-16T04:34:24.898Z,21.02
2022-08-16T04:36:52.774Z,20.95
2022-08-16T04:39:19.867Z,20.82
2022-08-16T04:41:50.256Z,20.84
2022-08-16T04:44:32.510Z,21.03
2022-08-16T04:47:21.668Z,20.85
2022-08-16T04:49:50.633Z,20.93
2022-08-16T04:52:34.548Z,21.05
2022-08-16T04:55:01.731Z,20.90
2022-08-16T04:57:29.941Z,21.11
2022-08-16T04:59:56.676Z,21.42
2022-08-16T05:02:41.400Z,21.37
2022-08-16T05:05:09.329Z,21.34
2022-08-16T05:07:57.773Z,21.42
2022-08-16T05:10:27.082Z,21.81
2022-08-16T05:12:53.726Z,21.78
2022-08-16T05:15:20.055Z,21.92
2022-08-16T05:17:46.716Z,21.85
2022-08-16T05:20:35.174Z,22.00
2022-08-16T05:22:59.329Z,22.02
2022-08-16T05:25:40.744Z,22.01
2022-08-16T05:28:10.555Z,21.97
2022-08-16T05:30:38.437Z,22.24
2022-08-16T05:33:04.876Z,22.30
2022-08-16T05:35:32.558Z,22.45
2022-08-16T05:37:58.919Z,22.51
2022-08-16T05:40:25.278Z,22.61
2022-08-16T05:42:52.918Z,22.58
2022-08-16T05:45:23.214Z,22.84
2022-08-16T05:47:59.431Z,23.09
2022-08-16T05:50:28.222Z,22.99
2022-08-16T05:53:00.573Z,23.17
2022-08-16T05:55:27.667Z,22.89
2022-08-16T05:57:56.329Z,22.75
2022-08-16T06:00:22.900Z,22.88
2022-08-16T06:02:50.135Z,22.91
2022-08-16T06:05:16.515Z,23.00
2022-08-16T06:07:42.951Z,23.07
2022-08-16T06:10:09.794Z,23.36
2022-08-16T06:12:36.142Z,23.49
2022-08-16T06:15:07.602Z,23.67
2022-08-16T06:17:42.692Z,24.00
2022-08-16T06:20:10.619Z,23.97
2022-08-16T06:22:39.162Z,23.70
2022-08-16T06:25:05.907Z,23.91
2022-08-16T06:27:39.642Z,23.94
2022-08-16T06:30:07.280Z,23.88
2022-08-16T06:32:38.336Z,24.08
2022-08-16T06:35:09.902Z,24.23
2022-08-16T06:37:37.317Z,24.57
2022-08-16T06:40:04.315Z,24.60
2022-08-16T06:42:47.294Z,24.67
2022-08-16T06:45:14.523Z,24.88
2022-08-16T06:47:53.103Z,24.91
2022-08-16T06:50:28.783Z,24.74
2022-08-16T06:52:59.913Z,24.93
2022-08-16T06:55:30.969Z,25.24
2022-08-16T06:58:00.881Z,25.14
2022-08-16T07:00:27.611Z,25.33
2022-08-16T07:02:54.667Z,25.60
2022-08-16T07:05:27.327Z,25.76
2022-08-16T07:08:10.519Z,25.24
2022-08-16T07:10:38.360Z,25.77
2022-08-16T07:13:11.579Z,25.86
2022-08-16T07:15:50.450Z,26.00
2022-08-16T07:18:19.704Z,25.96
2022-08-16T07:20:47.773Z,26.25
2022-08-16T07:23:14.663Z,26.29
2022-08-16T07:25:40.995Z,26.48
2022-08-16T07:28:09.291Z,26.27
2022-08-16T07:30:46.527Z,26.14
2022-08-16T07:33:15.879Z,26.59
2022-08-16T07:35:44.220Z,26.15
2022-08-16T07:38:19.574Z,26.70
2022-08-16T07:41:02.189Z,27.03
2022-08-16T07:43:32.736Z,27.03
2022-08-16T07:45:59.487Z,26.62
2022-08-16T07:48:27.745Z,26.23
2022-08-16T07:50:57.033Z,26.40
2022-08-16T07:53:25.488Z,26.60
2022-08-16T07:55:55.524Z,26.74
2022-08-16T07:58:33.810Z,27.23
2022-08-16T08:01:01.994Z,26.81
2022-08-16T08:03:38.776Z,26.92
2022-08-16T08:06:05.730Z,27.15
2022-08-16T08:08:51.732Z,27.07
2022-08-16T08:11:18.682Z,27.32
2022-08-16T08:13:44.983Z,27.60
2022-08-16T08:16:18.808Z,27.46
2022-08-16T08:18:49.811Z,27.73
2022-08-16T08:21:19.343Z,27.68
2022-08-16T08:23:52.719Z,27.34
2022-08-16T08:26:19.306Z,27.68
2022-08-16T08:28:45.612Z,27.93
2022-08-16T08:31:11.931Z,28.27
2022-08-16T08:33:47.187Z,28.30
2022-08-16T08:36:21.694Z,28.40
2022-08-16T08:38:49.695Z,27.81
2022-08-16T08:41:18.352Z,27.96
2022-08-16T08:43:45.428Z,28.07
2022-08-16T08:46:18.184Z,28.28
2022-08-16T08:49:00.125Z,28.44
2022-08-16T08:51:35.765Z,28.25
2022-08-16T08:54:06.744Z,28.32
2022-08-16T08:56:34.829Z,28.60
2022-08-16T08:59:06.046Z,28.81
2022-08-16T09:01:57.697Z,28.42
2022-08-16T09:04:24.660Z,28.98
2022-08-16T09:06:53.577Z,28.82
2022-08-16T09:09:20.037Z,28.62
2022-08-16T09:11:52.430Z,28.77
2022-08-16T09:14:26.682Z,28.83
2022-08-16T09:17:02.329Z,28.92
2022-08-16T09:19:31.940Z,28.59
2022-08-16T09:21:59.403Z,29.21
2022-08-16T09:24:46.683Z,29.38
2022-08-16T09:27:11.948Z,28.82
2022-08-16T09:29:44.939Z,29.24
2022-08-16T09:32:12.111Z,29.11
2022-08-16T09:34:38.634Z,29.29
2022-08-16T09:37:18.177Z,29.60
2022-08-16T09:39:50.100Z,29.99
2022-08-16T09:42:16.787Z,29.33
2022-08-16T09:45:09.342Z,29.98
2022-08-16T09:47:57.171Z,30.17
2022-08-16T09:50:22.720Z,30.37
2022-08-16T09:52:49.772Z,29.61
2022-08-16T09:55:16.125Z,30.04
2022-08-16T09:57:42.601Z,29.80
2022-08-16T10:00:42.141Z,30.22
2022-08-16T10:03:05.878Z,30.31
2022-08-16T10:05:37.239Z,30.02
2022-08-16T10:08:25.777Z,29.96
2022-08-16T10:11:09.530Z,29.60
2022-08-16T10:13:35.939Z,30.32
2022-08-16T10:16:02.325Z,30.15
2022-08-16T10:18:56.801Z,30.32
2022-08-16T10:21:16.153Z,30.39
2022-08-16T10:23:43.332Z,30.66
2022-08-16T10:27:16.755Z,30.55
2022-08-16T10:28:55.912Z,30.34
2022-08-16T10:31:43.663Z,30.39
2022-08-16T10:34:30.678Z,30.35
2022-08-16T10:36:55.330Z,30.35
2022-08-16T10:39:21.762Z,30.29
2022-08-16T10:41:50.743Z,30.59
2022-08-16T10:44:17.747Z,30.80
2022-08-16T10:46:44.083Z,31.13
2022-08-16T10:49:11.418Z,30.84
2022-08-16T10:52:01.953Z,30.98
2022-08-16T10:54:29.829Z,30.95
2022-08-16T10:56:57.499Z,30.48
2022-08-16T10:59:38.326Z,30.50
2022-08-16T11:02:58.930Z,30.01
2022-08-16T11:05:09.389Z,30.45
2022-08-16T11:07:45.500Z,30.84
2022-08-16T11:10:20.878Z,30.26
2022-08-16T11:13:58.138Z,29.93
2022-08-16T11:15:55.751Z,30.69
2022-08-16T11:18:48.514Z,30.51
2022-08-16T11:21:08.986Z,30.95
2022-08-16T11:23:58.113Z,30.32
2022-08-16T11:26:25.351Z,30.66
2022-08-16T11:31:39.372Z,30.90
2022-08-16T11:34:09.191Z,30.94
2022-08-16T11:36:36.645Z,30.72
2022-08-16T11:39:03.530Z,30.98
2022-08-16T11:41:33.978Z,30.84
2022-08-16T11:44:00.945Z,31.06
2022-08-16T11:46:43.501Z,31.72
2022-08-16T11:49:13.870Z,31.35
2022-08-16T11:51:43.776Z,31.06
2022-08-16T11:54:20.696Z,30.87
2022-08-16T11:56:53.194Z,31.27
2022-08-16T11:59:25.360Z,31.36
2022-08-16T12:01:58.926Z,31.35
2022-08-16T12:04:26.486Z,31.46
2022-08-16T12:06:53.760Z,31.21
2022-08-16T12:09:21.089Z,31.09
2022-08-16T12:11:52.730Z,31.20
2022-08-16T12:14:19.659Z,31.16
2022-08-16T12:16:55.607Z,31.70
2022-08-16T12:19:23.509Z,31.97
2022-08-16T12:22:01.963Z,31.53
2022-08-16T12:24:32.349Z,31.79
2022-08-16T12:26:59.989Z,31.99
2022-08-16T12:29:29.394Z,31.74
2022-08-16T12:32:00.490Z,31.35
2022-08-16T12:34:38.275Z,31.86
2022-08-16T12:37:15.457Z,31.64
2022-08-16T12:39:50.638Z,31.60
2022-08-16T12:42:19.362Z,31.71
2022-08-16T12:44:46.760Z,31.56
2022-08-16T12:47:32.568Z,31.47
2022-08-16T12:49:58.862Z,31.21
2022-08-16T12:52:33.160Z,31.77
2022-08-16T12:55:00.227Z,32.13
2022-08-16T12:57:29.352Z,31.23
2022-08-16T13:00:03.147Z,31.06
2022-08-16T13:02:33.691Z,32.04
2022-08-16T13:05:02.763Z,30.93
2022-08-16T13:07:31.225Z,31.42
2022-08-16T13:10:21.251Z,31.59
2022-08-16T13:12:55.772Z,32.09
2022-08-16T13:15:24.000Z,32.34
2022-08-16T13:17:50.385Z,32.32
2022-08-16T13:20:16.710Z,31.77
2022-08-16T13:22:43.014Z,31.82
2022-08-16T13:25:10.339Z,32.13
2022-08-16T13:28:02.116Z,32.25
2022-08-16T13:30:37.264Z,32.42
2022-08-16T13:33:12.527Z,31.87
2022-08-16T13:35:43.236Z,32.13
2022-08-16T13:38:09.764Z,32.18
2022-08-16T13:40:37.400Z,32.34
2022-08-16T13:43:04.074Z,31.89
2022-08-16T13:45:45.134Z,31.92
2022-08-16T13:48:21.908Z,31.37
2022-08-16T13:50:52.339Z,31.61
2022-08-16T13:53:18.651Z,31.98
2022-08-16T13:55:58.784Z,32.12
2022-08-16T13:58:36.571Z,32.49
2022-08-16T14:01:11.821Z,31.51
2022-08-16T14:03:38.464Z,32.44
2022-08-16T14:06:05.564Z,32.76
2022-08-16T14:08:32.152Z,32.30
2022-08-16T14:10:58.535Z,32.51
2022-08-16T14:13:24.864Z,32.54
2022-08-16T14:15:51.188Z,32.23
2022-08-16T14:18:20.317Z,32.46
2022-08-16T14:20:48.683Z,31.91
2022-08-16T14:23:17.512Z,32.06
2022-08-16T14:25:54.343Z,32.42
2022-08-16T14:28:25.814Z,32.32
2022-08-16T14:30:52.604Z,32.17
2022-08-16T14:33:19.534Z,32.53
2022-08-16T14:35:50.067Z,32.50
2022-08-16T14:38:18.207Z,32.10
2022-08-16T14:40:47.173Z,32.34
2022-08-16T14:43:18.878Z,31.76
2022-08-16T14:45:46.071Z,31.48
2022-08-16T14:48:21.527Z,32.21
2022-08-16T14:50:51.884Z,32.50
2022-08-16T14:53:18.167Z,32.74
2022-08-16T14:55:44.467Z,32.61
2022-08-16T14:58:19.219Z,32.57
2022-08-16T15:00:46.261Z,32.77
2022-08-16T15:03:12.594Z,32.94
2022-08-16T15:05:38.895Z,32.87
2022-08-16T15:08:05.330Z,32.78
2022-08-16T15:10:32.272Z,32.57
2022-08-16T15:12:58.922Z,32.59
2022-08-16T15:15:25.202Z,32.59
2022-08-16T15:17:53.734Z,32.58
2022-08-16T15:20:21.004Z,32.82
2022-08-16T15:22:47.328Z,32.72
2022-08-16T15:25:13.650Z,32.60
2022-08-16T15:27:42.261Z,32.33
2022-08-16T15:30:44.783Z,32.47
2022-08-16T15:32:55.021Z,32.50
2022-08-16T15:35:21.311Z,32.54
2022-08-16T15:37:54.319Z,32.14
2022-08-16T15:40:32.036Z,31.75
2022-08-16T15:43:01.513Z,31.63
2022-08-16T15:45:46.344Z,31.62
2022-08-16T15:48:12.900Z,31.89
2022-08-16T15:50:43.634Z,32.13
2022-08-16T15:53:12.310Z,32.13
2022-08-16T15:55:38.908Z,32.08
2022-08-16T15:58:34.865Z,32.20
2022-08-16T16:00:51.788Z,32.22
2022-08-16T16:03:18.147Z,31.95
2022-08-16T16:05:44.423Z,32.23
2022-08-16T16:08:12.856Z,32.30
2022-08-16T16:10:41.472Z,32.24
2022-08-16T16:13:08.781Z,32.21
2022-08-16T16:15:35.231Z,31.93
2022-08-16T16:18:09.294Z,32.08
2022-08-16T16:20:37.325Z,32.18
2022-08-16T16:23:10.022Z,32.04
2022-08-16T16:25:36.471Z,32.03
2022-08-16T16:28:02.930Z,32.15
2022-08-16T16:30:45.055Z,31.98
2022-08-16T16:33:11.805Z,32.14
2022-08-16T16:35:41.976Z,31.70
2022-08-16T16:38:15.459Z,31.93
2022-08-16T16:40:46.537Z,32.16
2022-08-16T16:43:20.733Z,32.00
2022-08-16T16:45:55.926Z,31.84
2022-08-16T16:48:22.448Z,32.01
2022-08-16T16:50:57.905Z,32.11
2022-08-16T16:53:24.206Z,31.96
2022-08-16T16:55:58.178Z,32.14
2022-08-16T16:58:53.292Z,32.09
2022-08-16T17:01:20.740Z,31.98
2022-08-16T17:03:53.799Z,31.57
2022-08-16T17:06:20.308Z,31.60
2022-08-16T17:08:47.715Z,31.51
2022-08-16T17:11:17.616Z,31.50
2022-08-16T17:13:44.391Z,31.57
2022-08-16T17:16:18.652Z,31.46
2022-08-16T17:19:17.056Z,31.30
2022-08-16T17:21:33.489Z,31.29
2022-08-16T17:24:03.355Z,31.22
2022-08-16T17:26:49.142Z,31.02
2022-08-16T17:29:22.153Z,30.98
2022-08-16T17:32:33.255Z,30.91
2022-08-16T17:34:45.401Z,30.92
2022-08-16T17:37:13.558Z,30.73
2022-08-16T17:39:58.128Z,30.72
2022-08-16T17:42:26.716Z,30.77
2022-08-16T17:44:54.534Z,30.72
2022-08-16T17:47:21.314Z,30.53
2022-08-16T17:49:47.610Z,30.57
2022-08-16T17:52:14.640Z,30.53
2022-08-16T17:54:40.954Z,30.52
2022-08-16T17:57:07.284Z,30.45
2022-08-16T17:59:41.330Z,30.42
2022-08-16T18:02:42.084Z,30.36
2022-08-16T18:04:54.124Z,30.29
2022-08-16T18:07:20.518Z,30.06
2022-08-16T18:09:46.813Z,29.95
2022-08-16T18:12:44.064Z,30.00
2022-08-16T18:15:00.202Z,29.93
2022-08-16T18:17:26.723Z,29.55
2022-08-16T18:19:53.023Z,29.63
2022-08-16T18:22:19.360Z,29.54
2022-08-16T18:24:45.665Z,29.58
2022-08-16T18:27:25.894Z,29.58
2022-08-16T18:29:53.273Z,29.55
2022-08-16T18:32:24.526Z,29.51
2022-08-16T18:34:51.399Z,29.38
2022-08-16T18:37:17.696Z,29.33
2022-08-16T18:39:44.087Z,29.32
2022-08-16T18:42:10.428Z,29.25
2022-08-16T18:44:36.775Z,29.18
2022-08-16T18:47:03.094Z,29.12
2022-08-16T18:49:29.394Z,29.14
2022-08-16T18:51:55.684Z,29.07
2022-08-16T18:54:24.429Z,29.02
2022-08-16T18:56:56.461Z,28.98
2022-08-16T18:59:23.952Z,28.94
2022-08-16T19:01:51.038Z,28.90
2022-08-16T19:04:50.486Z,28.85
2022-08-16T19:07:03.673Z,28.83
2022-08-16T19:09:29.977Z,28.84
2022-08-16T19:11:56.288Z,28.83
2022-08-16T19:14:29.858Z,28.78
2022-08-16T19:16:56.165Z,28.71
2022-08-16T19:19:22.862Z,28.71
2022-08-16T19:21:49.162Z,28.63
2022-08-16T19:24:18.145Z,28.64
2022-08-16T19:26:45.377Z,28.60
2022-08-16T19:29:11.891Z,28.55
2022-08-16T19:31:39.899Z,28.17
2022-08-16T19:34:06.334Z,27.97
2022-08-16T19:36:35.266Z,28.18
2022-08-16T19:39:04.667Z,28.23
2022-08-16T19:41:32.016Z,28.27
2022-08-16T19:43:58.302Z,28.26
2022-08-16T19:46:24.610Z,28.26
2022-08-16T19:48:50.914Z,28.19
2022-08-16T19:51:17.241Z,28.18
2022-08-16T19:53:43.586Z,28.21
2022-08-16T19:56:09.979Z,28.13
2022-08-16T19:58:36.762Z,28.06
2022-08-16T20:01:03.019Z,28.02
2022-08-16T20:03:29.371Z,27.97
2022-08-16T20:05:56.555Z,28.01
2022-08-16T20:08:22.835Z,27.97
2022-08-16T20:10:50.457Z,28.00
2022-08-16T20:13:17.023Z,27.98
2022-08-16T20:15:43.283Z,27.98
2022-08-16T20:18:17.160Z,28.00
2022-08-16T20:20:51.481Z,27.98
2022-08-16T20:23:24.381Z,27.95
2022-08-16T20:25:51.587Z,27.90
2022-08-16T20:28:33.424Z,27.88
2022-08-16T20:31:04.180Z,27.85
2022-08-16T20:33:30.477Z,27.87
2022-08-16T20:35:56.784Z,27.81
2022-08-16T20:38:24.558Z,27.78
2022-08-16T20:40:50.913Z,27.77
2022-08-16T20:43:17.218Z,27.75
2022-08-16T20:45:43.522Z,27.72
2022-08-16T20:48:10.062Z,27.71
2022-08-16T20:50:36.373Z,27.68
2022-08-16T20:53:02.658Z,27.66
2022-08-16T20:55:28.971Z,27.69
2022-08-16T20:57:55.258Z,27.70
2022-08-16T21:00:21.569Z,27.70
2022-08-16T21:02:47.876Z,27.39
2022-08-16T21:05:14.174Z,27.43
2022-08-16T21:07:40.473Z,27.51
2022-08-16T21:10:07.520Z,27.48
2022-08-16T21:12:34.804Z,27.54
2022-08-16T21:15:04.283Z,27.58
2022-08-16T21:17:30.564Z,27.40
2022-08-16T21:19:56.878Z,27.47
2022-08-16T21:22:23.188Z,27.45
2022-08-16T21:24:49.693Z,27.45
2022-08-16T21:27:20.506Z,27.46
2022-08-16T21:29:48.747Z,27.44
2022-08-16T21:32:15.393Z,27.39
2022-08-16T21:34:41.700Z,27.42
2022-08-16T21:37:07.995Z,27.35
2022-08-16T21:39:34.328Z,27.36
2022-08-16T21:42:00.647Z,27.29
2022-08-16T21:44:31.188Z,27.27
2022-08-16T21:47:04.847Z,27.26
2022-08-16T21:49:31.152Z,27.22
2022-08-16T21:51:57.450Z,27.16
2022-08-16T21:54:23.749Z,27.21
2022-08-16T21:56:50.094Z,27.18
2022-08-16T21:59:16.420Z,27.27
2022-08-16T22:01:42.757Z,27.22
2022-08-16T22:04:37.515Z,26.96
2022-08-16T22:06:55.561Z,26.99
2022-08-16T22:09:21.957Z,26.95
2022-08-16T22:11:48.265Z,26.85
2022-08-16T22:14:14.603Z,26.76
2022-08-16T22:16:41.692Z,26.73
2022-08-16T22:19:07.996Z,26.71
2022-08-16T22:21:34.315Z,26.71
2022-08-16T22:24:00.611Z,26.71
2022-08-16T22:26:30.999Z,26.59
2022-08-16T22:28:57.848Z,26.63
2022-08-16T22:31:27.839Z,26.61
2022-08-16T22:33:55.883Z,26.39
2022-08-16T22:36:22.211Z,26.39
2022-08-16T22:38:53.620Z,26.40
2022-08-16T22:41:21.877Z,26.35
2022-08-16T22:43:48.375Z,26.33
2022-08-16T22:46:14.668Z,26.40
2022-08-16T22:48:42.492Z,26.38
2022-08-16T22:51:09.079Z,26.20
2022-08-16T22:53:35.384Z,26.08
2022-08-16T22:56:03.815Z,26.02
2022-08-16T22:58:36.438Z,26.15
2022-08-16T23:01:05.963Z,26.22
2022-08-16T23:03:32.461Z,26.14
2022-08-16T23:06:00.381Z,26.14
2022-08-16T23:08:38.632Z,26.15
2022-08-16T23:11:06.524Z,26.13
2022-08-16T23:13:32.909Z,26.07
2022-08-16T23:16:00.674Z,26.06
2022-08-16T23:18:29.411Z,26.11
2022-08-16T23:20:55.744Z,26.13
2022-08-16T23:23:23.966Z,26.23
2022-08-16T23:25:54.926Z,26.23
2022-08-16T23:28:21.524Z,26.13
2022-08-16T23:30:48.715Z,26.08
2022-08-16T23:33:15.456Z,25.99
2022-08-16T23:35:45.371Z,26.03
2022-08-16T23:38:38.464Z,26.06
2022-08-16T23:40:58.465Z,26.07
2022-08-16T23:43:24.767Z,26.04
2022-08-16T23:45:51.598Z,25.84
2022-08-16T23:48:17.860Z,25.80
2022-08-16T23:50:44.176Z,25.83
2022-08-16T23:53:10.469Z,25.82
2022-08-16T23:55:36.772Z,25.80
2022-08-16T23:58:03.074Z,25.73
